Ellenburg Center, New York
Current Conditions -  °F | °C
As of 5:53 PM on Tuesday 27 Jan 2015 (Local Time) from KPBG Reporting Station
Light Snow Light Snow  
Wind Chill: -23°   Ceiling: 2900
Heat Index: -12°   Visibility: 2.5mi
Dew Point: -17°   Wind: 23mph
Humidity: 70%   Direction: 360°N
Pressure: 29.98"   Gusts: 31mph
Location:  44.86°N, 73.9°W
Report Text: KPBG 272253Z AUTO 36020G27KT 2 1/2SM -SN OVC029 M12/M17 A2998 RMK AO2 PK WND 35027/2244 SLP159 P0000 T11221167
Loading
Personal Weather Stations






























Interactive Weather Map New forecast layout! Learn more

10-Day Weather Forecast

Advertisements
Track Severe Weather on mobile